createdAt,value
2019-04-30T00:01:22.312Z,7.23
2019-04-30T00:04:08.916Z,7.33
2019-04-30T00:06:39.505Z,7.20
2019-04-30T00:09:49.281Z,7.30
2019-04-30T00:12:15.694Z,7.28
2019-04-30T00:14:44.867Z,7.18
2019-04-30T00:17:15.840Z,7.16
2019-04-30T00:19:41.032Z,7.10
2019-04-30T00:22:07.740Z,7.02
2019-04-30T00:24:35.521Z,6.98
2019-04-30T00:27:04.996Z,7.02
2019-04-30T00:29:31.887Z,7.07
2019-04-30T00:32:04.574Z,7.05
2019-04-30T00:34:30.903Z,6.99
2019-04-30T00:36:56.094Z,7.08
2019-04-30T00:39:22.782Z,6.90
2019-04-30T00:42:02.688Z,6.95
2019-04-30T00:44:29.763Z,7.02
2019-04-30T00:47:00.744Z,6.84
2019-04-30T00:49:26.693Z,6.92
2019-04-30T00:51:57.000Z,6.83
2019-04-30T00:54:27.966Z,6.81
2019-04-30T00:56:51.346Z,6.86
2019-04-30T00:59:18.368Z,6.81
2019-04-30T01:02:06.083Z,6.82
2019-04-30T01:04:52.587Z,6.68
2019-04-30T01:10:07.642Z,6.68
2019-04-30T01:12:41.117Z,6.64
2019-04-30T01:15:06.389Z,6.58
2019-04-30T01:17:32.527Z,6.66
2019-04-30T01:19:59.361Z,6.60
2019-04-30T01:22:29.225Z,6.58
2019-04-30T01:24:55.389Z,6.56
2019-04-30T01:27:22.354Z,6.55
2019-04-30T01:29:49.169Z,6.58
2019-04-30T01:32:19.830Z,6.52
2019-04-30T01:34:49.825Z,6.56
2019-04-30T01:37:13.200Z,6.51
2019-04-30T01:39:39.957Z,6.48
2019-04-30T01:42:07.888Z,6.44
2019-04-30T01:44:35.442Z,6.49
2019-04-30T01:47:02.270Z,6.44
2019-04-30T01:49:41.569Z,6.52
2019-04-30T01:52:00.536Z,6.51
2019-04-30T01:54:29.019Z,6.43
2019-04-30T01:57:15.472Z,6.39
2019-04-30T02:00:01.944Z,6.46
2019-04-30T02:05:08.941Z,6.27
2019-04-30T02:07:36.358Z,6.33
2019-04-30T02:10:03.334Z,6.29
2019-04-30T02:12:30.049Z,6.27
2019-04-30T02:14:59.500Z,6.15
2019-04-30T02:17:25.974Z,6.24
2019-04-30T02:19:56.636Z,6.27
2019-04-30T02:22:21.356Z,6.17
2019-04-30T02:24:48.600Z,6.05
2019-04-30T02:27:16.658Z,6.09
2019-04-30T02:29:43.422Z,6.04
2019-04-30T02:32:10.320Z,6.01
2019-04-30T02:39:53.099Z,6.05
2019-04-30T02:42:20.622Z,5.99
2019-04-30T02:45:03.771Z,6.03
2019-04-30T02:48:11.720Z,5.99
2019-04-30T02:51:22.868Z,5.92
2019-04-30T02:54:09.766Z,5.88
2019-04-30T02:56:40.065Z,5.91
2019-04-30T02:59:26.138Z,5.82
2019-04-30T03:01:52.862Z,5.74
2019-04-30T03:04:19.824Z,5.87
2019-04-30T03:06:46.633Z,5.83
2019-04-30T03:09:13.694Z,5.83
2019-04-30T03:11:41.103Z,5.78
2019-04-30T03:14:10.232Z,5.71
2019-04-30T03:17:00.118Z,5.74
2019-04-30T03:22:21.753Z,5.62
2019-04-30T03:24:50.172Z,5.58
2019-04-30T03:27:20.467Z,5.64
2019-04-30T03:29:46.330Z,5.58
2019-04-30T03:32:14.299Z,5.51
2019-04-30T03:34:42.669Z,5.49
2019-04-30T03:37:10.279Z,5.55
2019-04-30T03:39:39.845Z,5.50
2019-04-30T03:42:05.935Z,5.49
2019-04-30T03:44:32.808Z,5.52
2019-04-30T03:46:59.676Z,5.42
2019-04-30T03:49:26.408Z,5.58
2019-04-30T03:51:53.176Z,5.51
2019-04-30T03:54:19.913Z,5.53
2019-04-30T03:56:49.916Z,5.53
2019-04-30T03:59:15.698Z,5.48
2019-04-30T04:07:34.349Z,5.53
2019-04-30T04:12:59.588Z,5.53
2019-04-30T04:15:25.373Z,5.50
2019-04-30T04:17:52.367Z,5.52
2019-04-30T04:20:20.338Z,5.60
2019-04-30T04:22:49.724Z,5.53
2019-04-30T04:25:20.082Z,5.51
2019-04-30T04:27:45.525Z,5.59
2019-04-30T04:30:12.476Z,5.64
2019-04-30T04:32:40.563Z,5.62
2019-04-30T04:35:09.897Z,5.66
2019-04-30T04:37:36.448Z,5.69
2019-04-30T04:40:03.314Z,5.69
2019-04-30T04:42:33.105Z,5.74
2019-04-30T04:44:59.444Z,5.79
2019-04-30T04:47:40.437Z,5.84
2019-04-30T04:50:10.029Z,6.02
2019-04-30T04:52:36.487Z,5.92
2019-04-30T04:55:03.584Z,5.94
2019-04-30T04:57:30.776Z,6.13
2019-04-30T05:00:03.444Z,6.09
2019-04-30T05:02:49.554Z,6.10
2019-04-30T05:05:15.816Z,6.17
2019-04-30T05:07:42.624Z,6.27
2019-04-30T05:10:09.986Z,6.23
2019-04-30T05:12:37.952Z,6.35
2019-04-30T05:15:05.550Z,6.42
2019-04-30T05:17:32.324Z,6.54
2019-04-30T05:19:59.046Z,6.59
2019-04-30T05:22:25.933Z,6.60
2019-04-30T05:24:53.561Z,6.73
2019-04-30T05:27:20.410Z,6.71
2019-04-30T05:29:47.131Z,6.81
2019-04-30T05:32:13.881Z,6.91
2019-04-30T05:34:41.061Z,6.97
2019-04-30T05:37:09.036Z,7.03
2019-04-30T05:39:39.035Z,7.08
2019-04-30T05:42:05.910Z,7.18
2019-04-30T05:44:32.637Z,7.26
2019-04-30T05:46:59.398Z,7.41
2019-04-30T05:49:26.195Z,7.50
2019-04-30T05:52:12.574Z,7.49
2019-04-30T05:54:39.293Z,7.58
2019-04-30T05:57:06.044Z,7.65
2019-04-30T05:59:32.794Z,7.79
2019-04-30T06:01:59.647Z,7.84
2019-04-30T06:04:26.374Z,7.96
2019-04-30T06:06:53.387Z,8.02
2019-04-30T06:10:01.194Z,8.10
2019-04-30T06:12:49.311Z,8.20
2019-04-30T06:15:23.884Z,8.39
2019-04-30T06:17:59.970Z,8.47
2019-04-30T06:20:39.712Z,8.46
2019-04-30T06:23:06.980Z,8.56
2019-04-30T06:25:52.935Z,8.67
2019-04-30T06:28:43.508Z,8.72
2019-04-30T06:31:10.290Z,8.72
2019-04-30T06:33:38.828Z,8.75
2019-04-30T06:36:06.152Z,9.00
2019-04-30T06:38:32.965Z,9.04
2019-04-30T06:40:59.749Z,9.17
2019-04-30T06:43:28.586Z,9.37
2019-04-30T06:45:55.672Z,9.40
2019-04-30T06:48:45.882Z,9.55
2019-04-30T06:51:25.298Z,9.56
2019-04-30T06:53:52.110Z,9.74
2019-04-30T06:56:19.085Z,9.77
2019-04-30T06:58:46.590Z,9.91
2019-04-30T07:01:13.797Z,10.08
2019-04-30T07:03:40.915Z,10.21
2019-04-30T07:06:08.403Z,10.36
2019-04-30T07:11:39.206Z,10.73
2019-04-30T07:14:06.277Z,10.82
2019-04-30T07:16:33.275Z,11.09
2019-04-30T07:19:00.403Z,11.23
2019-04-30T07:21:31.204Z,11.31
2019-04-30T07:23:56.500Z,11.53
2019-04-30T07:26:24.727Z,11.74
2019-04-30T07:28:55.337Z,11.95
2019-04-30T07:31:22.227Z,11.91
2019-04-30T07:33:53.093Z,11.75
2019-04-30T07:36:19.558Z,11.98
2019-04-30T07:38:53.770Z,12.18
2019-04-30T07:41:15.397Z,12.37
2019-04-30T07:43:43.683Z,12.64
2019-04-30T07:46:10.603Z,12.83
2019-04-30T07:48:39.949Z,12.86
2019-04-30T07:51:10.485Z,12.91
2019-04-30T07:53:40.160Z,13.22
2019-04-30T07:56:24.370Z,13.42
2019-04-30T07:58:39.226Z,13.44
2019-04-30T08:01:10.264Z,13.60
2019-04-30T08:03:59.020Z,13.74
2019-04-30T08:06:30.580Z,13.87
2019-04-30T08:09:00.676Z,13.97
2019-04-30T08:11:29.282Z,14.09
2019-04-30T08:13:58.982Z,14.05
2019-04-30T08:16:28.774Z,14.05
2019-04-30T08:18:55.440Z,14.46
2019-04-30T08:21:22.215Z,14.23
2019-04-30T08:23:49.073Z,14.33
2019-04-30T08:26:15.901Z,14.37
2019-04-30T08:28:42.803Z,14.51
2019-04-30T08:31:09.913Z,14.48
2019-04-30T08:33:36.750Z,14.46
2019-04-30T08:36:03.553Z,14.76
2019-04-30T08:38:30.249Z,14.96
2019-04-30T08:40:58.775Z,15.11
2019-04-30T08:43:26.089Z,14.83
2019-04-30T08:45:53.239Z,15.05
2019-04-30T08:48:20.380Z,15.31
2019-04-30T08:50:49.455Z,14.94
2019-04-30T08:53:29.019Z,15.46
2019-04-30T08:55:46.184Z,15.64
2019-04-30T08:58:15.252Z,15.70
2019-04-30T09:00:42.751Z,15.91
2019-04-30T09:03:10.272Z,16.06
2019-04-30T09:05:58.538Z,16.37
2019-04-30T09:08:26.352Z,16.17
2019-04-30T09:10:53.885Z,16.39
2019-04-30T09:13:21.443Z,16.37
2019-04-30T09:15:49.275Z,16.46
2019-04-30T09:18:19.059Z,16.92
2019-04-30T09:20:46.904Z,17.43
2019-04-30T09:23:14.090Z,17.12
2019-04-30T09:25:41.198Z,16.69
2019-04-30T09:28:08.711Z,16.57
2019-04-30T09:30:35.824Z,16.66
2019-04-30T09:33:02.997Z,16.65
2019-04-30T09:35:32.175Z,16.72
2019-04-30T09:38:01.863Z,17.30
2019-04-30T09:40:32.206Z,17.47
2019-04-30T09:42:58.573Z,17.77
2019-04-30T09:45:28.558Z,17.98
2019-04-30T09:47:56.120Z,18.17
2019-04-30T09:50:23.335Z,18.72
2019-04-30T09:52:50.770Z,18.61
2019-04-30T09:55:19.335Z,18.44
2019-04-30T09:58:00.364Z,19.04
2019-04-30T10:00:29.458Z,19.22
2019-04-30T10:02:58.831Z,19.21
2019-04-30T10:05:25.688Z,19.39
2019-04-30T10:07:52.858Z,19.53
2019-04-30T10:13:11.047Z,19.64
2019-04-30T10:15:58.581Z,19.66
2019-04-30T10:18:26.095Z,19.30
2019-04-30T10:20:53.340Z,19.53
2019-04-30T10:23:20.476Z,19.76
2019-04-30T10:25:47.564Z,19.71
2019-04-30T10:28:14.771Z,19.73
2019-04-30T10:30:41.872Z,19.77
2019-04-30T10:33:09.988Z,20.50
2019-04-30T10:35:38.664Z,20.99
2019-04-30T10:38:09.696Z,21.04
2019-04-30T10:40:36.207Z,21.14
2019-04-30T10:43:22.763Z,21.45
2019-04-30T10:45:49.776Z,21.04
2019-04-30T10:48:17.005Z,20.77
2019-04-30T10:50:44.447Z,21.03
2019-04-30T10:53:31.227Z,21.30
2019-04-30T10:55:59.457Z,20.88
2019-04-30T10:58:27.517Z,20.64
2019-04-30T11:00:55.800Z,20.86
2019-04-30T11:03:24.896Z,21.03
2019-04-30T11:05:54.251Z,21.88
2019-04-30T11:08:41.873Z,21.77
2019-04-30T11:11:12.132Z,21.59
2019-04-30T11:13:41.349Z,21.42
2019-04-30T11:16:14.724Z,21.68
2019-04-30T11:18:40.399Z,22.28
2019-04-30T11:21:10.181Z,22.68
2019-04-30T11:23:39.602Z,22.80
2019-04-30T11:26:08.014Z,23.30
2019-04-30T11:28:56.069Z,23.27
2019-04-30T11:31:42.796Z,22.80
2019-04-30T11:34:10.052Z,23.14
2019-04-30T11:36:38.887Z,24.08
2019-04-30T11:42:02.401Z,23.55
2019-04-30T11:44:31.458Z,23.04
2019-04-30T11:47:39.094Z,23.52
2019-04-30T11:50:08.746Z,23.45
2019-04-30T11:52:35.824Z,23.41
2019-04-30T11:55:03.698Z,23.38
2019-04-30T11:57:31.234Z,23.67
2019-04-30T11:59:58.762Z,23.20
2019-04-30T12:02:45.469Z,23.33
2019-04-30T12:05:34.526Z,22.44
2019-04-30T12:08:20.975Z,22.58
2019-04-30T12:11:07.690Z,21.90
2019-04-30T12:13:34.772Z,21.40
2019-04-30T12:16:02.212Z,21.41
2019-04-30T12:18:29.528Z,21.36
2019-04-30T12:20:56.631Z,21.15
2019-04-30T12:23:23.796Z,21.22
2019-04-30T12:25:50.902Z,20.92
2019-04-30T12:28:19.532Z,20.49
2019-04-30T12:30:48.795Z,20.25
2019-04-30T12:33:15.472Z,20.04
2019-04-30T12:36:01.845Z,19.89
2019-04-30T12:38:29.832Z,19.72
2019-04-30T12:40:58.021Z,20.03
2019-04-30T12:43:25.210Z,20.16
2019-04-30T12:46:02.646Z,19.94
2019-04-30T12:48:41.102Z,20.02
2019-04-30T12:54:09.320Z,19.76
2019-04-30T12:56:55.722Z,19.69
2019-04-30T12:59:22.336Z,20.06
2019-04-30T13:01:49.589Z,20.03
2019-04-30T13:04:16.375Z,20.11
2019-04-30T13:06:43.712Z,20.13
2019-04-30T13:09:12.789Z,20.02
2019-04-30T13:11:41.723Z,20.07
2019-04-30T13:14:10.609Z,20.34
2019-04-30T13:16:39.299Z,20.39
2019-04-30T13:19:06.498Z,20.36
2019-04-30T13:21:33.569Z,20.32
2019-04-30T13:24:20.073Z,20.33
2019-04-30T13:26:46.835Z,20.55
2019-04-30T13:32:05.154Z,20.49
2019-04-30T13:34:51.504Z,20.49
2019-04-30T13:37:19.201Z,20.51
2019-04-30T13:42:44.281Z,20.97
2019-04-30T13:45:11.212Z,21.14
2019-04-30T13:47:39.070Z,21.15
2019-04-30T13:50:29.296Z,20.88
2019-04-30T13:52:58.815Z,21.17
2019-04-30T13:55:46.447Z,21.24
2019-04-30T13:58:13.635Z,21.52
2019-04-30T14:00:41.258Z,21.79
2019-04-30T14:11:18.958Z,21.54
2019-04-30T14:13:46.832Z,21.54
2019-04-30T14:16:16.929Z,21.47
2019-04-30T14:18:43.927Z,21.45
2019-04-30T14:21:11.332Z,21.35
2019-04-30T14:23:39.631Z,21.27
2019-04-30T14:26:09.365Z,21.38
2019-04-30T14:28:39.002Z,21.43
2019-04-30T14:31:06.382Z,21.50
2019-04-30T14:33:33.872Z,21.43
2019-04-30T14:36:01.117Z,21.38
2019-04-30T14:38:28.564Z,21.36
2019-04-30T14:40:56.125Z,21.38
2019-04-30T14:43:44.802Z,21.23
2019-04-30T14:46:32.589Z,21.33
2019-04-30T14:49:22.075Z,21.22
2019-04-30T14:51:51.369Z,20.70
2019-04-30T14:57:17.416Z,20.75
2019-04-30T15:00:04.159Z,20.41
2019-04-30T15:02:35.015Z,20.27
2019-04-30T15:05:02.224Z,20.79
2019-04-30T15:07:29.659Z,21.13
2019-04-30T15:09:56.882Z,21.02
2019-04-30T15:12:24.002Z,21.09
2019-04-30T15:14:51.180Z,20.85
2019-04-30T15:17:18.607Z,21.19
2019-04-30T15:19:45.753Z,21.22
2019-04-30T15:22:13.722Z,21.06
2019-04-30T15:24:40.839Z,20.96
2019-04-30T15:27:09.306Z,20.48
2019-04-30T15:29:39.001Z,20.45
2019-04-30T15:32:06.296Z,20.63
2019-04-30T15:34:33.368Z,20.71
2019-04-30T15:37:00.544Z,20.87
2019-04-30T15:39:49.033Z,20.94
2019-04-30T15:44:51.916Z,20.63
2019-04-30T15:47:19.628Z,20.36
2019-04-30T15:49:46.784Z,20.39
2019-04-30T15:52:14.342Z,20.39
2019-04-30T15:54:41.834Z,20.21
2019-04-30T15:57:09.041Z,20.12
2019-04-30T15:59:55.839Z,19.98
2019-04-30T16:02:53.620Z,20.11
2019-04-30T16:05:31.449Z,20.32
2019-04-30T16:08:18.991Z,20.09
2019-04-30T16:13:58.540Z,20.05
2019-04-30T16:19:16.159Z,19.92
2019-04-30T16:21:43.301Z,19.76
2019-04-30T16:24:10.432Z,19.60
2019-04-30T16:26:48.649Z,19.57
2019-04-30T16:29:06.607Z,19.66
2019-04-30T16:31:35.665Z,19.50
2019-04-30T16:34:02.933Z,19.11
2019-04-30T16:36:30.041Z,19.11
2019-04-30T16:38:58.635Z,19.19
2019-04-30T16:41:31.707Z,18.96
2019-04-30T16:43:55.780Z,18.88
2019-04-30T16:46:23.035Z,18.71
2019-04-30T16:48:50.167Z,18.52
2019-04-30T16:51:18.791Z,18.40
2019-04-30T16:53:48.620Z,18.29
2019-04-30T16:56:15.895Z,18.12
2019-04-30T16:59:02.653Z,18.08
2019-04-30T17:02:10.922Z,18.00
2019-04-30T17:04:57.817Z,17.86
2019-04-30T17:07:42.332Z,17.72
2019-04-30T17:10:29.436Z,17.68
2019-04-30T17:13:16.153Z,17.54
2019-04-30T17:15:43.538Z,17.33
2019-04-30T17:18:12.246Z,17.27
2019-04-30T17:20:39.979Z,17.16
2019-04-30T17:23:09.322Z,16.96
2019-04-30T17:25:36.618Z,16.95
2019-04-30T17:28:04.178Z,16.83
2019-04-30T17:30:31.305Z,16.74
2019-04-30T17:32:59.772Z,16.60
2019-04-30T17:38:27.315Z,16.17
2019-04-30T17:40:54.806Z,16.10
2019-04-30T17:43:24.261Z,15.94
2019-04-30T17:45:50.958Z,15.76
2019-04-30T17:48:18.057Z,15.63
2019-04-30T17:50:45.262Z,15.50
2019-04-30T17:53:12.582Z,15.40
2019-04-30T17:55:39.742Z,15.26
2019-04-30T17:58:07.145Z,15.11
2019-04-30T18:03:22.927Z,14.79
2019-04-30T18:05:50.044Z,14.63
2019-04-30T18:08:17.632Z,14.44
2019-04-30T18:13:31.981Z,14.13
2019-04-30T18:16:00.419Z,13.96
2019-04-30T18:24:40.440Z,13.45
2019-04-30T18:29:48.718Z,13.08
2019-04-30T18:32:16.324Z,12.93
2019-04-30T18:34:55.989Z,12.83
2019-04-30T18:37:12.466Z,12.67
2019-04-30T18:39:39.879Z,12.53
2019-04-30T18:42:10.826Z,12.38
2019-04-30T18:44:36.652Z,12.23
2019-04-30T18:47:03.769Z,12.11
2019-04-30T18:49:30.907Z,11.99
2019-04-30T18:51:59.056Z,11.86
2019-04-30T18:54:28.946Z,11.74
2019-04-30T18:56:58.819Z,11.64
2019-04-30T18:59:26.089Z,11.54
2019-04-30T19:01:53.479Z,11.39
2019-04-30T19:04:20.694Z,11.30
2019-04-30T19:12:45.453Z,11.04
2019-04-30T19:18:39.795Z,10.82
2019-04-30T19:21:08.923Z,10.68
2019-04-30T19:23:36.291Z,10.61
2019-04-30T19:26:03.155Z,10.42
2019-04-30T19:28:30.040Z,10.47
2019-04-30T19:31:16.667Z,10.46
2019-04-30T19:33:43.753Z,10.36
2019-04-30T19:36:10.605Z,10.27
2019-04-30T19:38:37.498Z,10.20
2019-04-30T19:41:04.671Z,10.12
2019-04-30T19:43:31.603Z,10.08
2019-04-30T19:45:59.262Z,10.00
2019-04-30T19:48:26.589Z,9.94
2019-04-30T19:50:53.364Z,9.85
2019-04-30T19:53:22.279Z,9.82
2019-04-30T19:55:49.918Z,9.75
2019-04-30T19:58:26.090Z,9.73
2019-04-30T20:00:46.076Z,9.69
2019-04-30T20:03:13.200Z,9.63
2019-04-30T20:05:40.435Z,9.61
2019-04-30T20:08:08.989Z,9.56
2019-04-30T20:10:36.505Z,9.53
2019-04-30T20:13:04.149Z,9.49
2019-04-30T20:15:31.452Z,9.41
2019-04-30T20:18:00.986Z,9.34
2019-04-30T20:23:35.700Z,9.25
2019-04-30T20:26:02.562Z,9.20
2019-04-30T20:28:39.038Z,9.16
2019-04-30T20:30:58.224Z,9.13
2019-04-30T20:33:25.403Z,9.17
2019-04-30T20:35:52.672Z,9.17
2019-04-30T20:41:03.932Z,9.22
2019-04-30T20:43:30.947Z,9.21
2019-04-30T20:45:58.372Z,9.23
2019-04-30T20:48:26.973Z,9.20
2019-04-30T20:50:54.118Z,9.14
2019-04-30T20:53:21.541Z,9.21
2019-04-30T20:55:49.585Z,9.13
2019-04-30T20:58:18.124Z,9.14
2019-04-30T21:00:45.195Z,9.08
2019-04-30T21:03:12.272Z,9.11
2019-04-30T21:05:39.523Z,9.13
2019-04-30T21:08:06.955Z,9.09
2019-04-30T21:10:34.190Z,9.05
2019-04-30T21:13:01.300Z,9.02
2019-04-30T21:15:29.722Z,9.12
2019-04-30T21:17:58.734Z,9.18
2019-04-30T21:20:28.883Z,9.29
2019-04-30T21:22:56.154Z,9.39
2019-04-30T21:25:23.384Z,9.50
2019-04-30T21:28:10.516Z,9.60
2019-04-30T21:30:37.836Z,9.69
2019-04-30T21:33:46.004Z,9.78
2019-04-30T21:36:18.415Z,9.85
2019-04-30T21:38:46.151Z,10.03
2019-04-30T21:41:13.079Z,10.10
2019-04-30T21:43:40.391Z,10.06
2019-04-30T21:46:09.381Z,10.11
2019-04-30T21:48:38.923Z,10.18
2019-04-30T21:51:06.203Z,10.11
2019-04-30T21:53:33.968Z,10.16
2019-04-30T21:56:01.216Z,10.16
2019-04-30T21:58:29.255Z,10.12
2019-04-30T22:04:07.901Z,10.13
2019-04-30T22:06:35.285Z,10.18
2019-04-30T22:09:02.534Z,10.11
2019-04-30T22:11:30.141Z,10.18
2019-04-30T22:13:58.572Z,10.21
2019-04-30T22:16:26.065Z,10.22
2019-04-30T22:18:53.540Z,10.24
2019-04-30T22:21:20.691Z,10.21
2019-04-30T22:23:47.974Z,10.21
2019-04-30T22:26:15.086Z,10.19
2019-04-30T22:28:42.646Z,10.15
2019-04-30T22:31:10.244Z,10.19
2019-04-30T22:33:39.199Z,10.14
2019-04-30T22:36:45.656Z,10.18
2019-04-30T22:39:32.684Z,10.16
2019-04-30T22:42:20.159Z,10.16
2019-04-30T22:44:47.671Z,10.24
2019-04-30T22:47:14.753Z,10.28
2019-04-30T22:49:41.900Z,10.32
2019-04-30T22:52:09.017Z,10.35
2019-04-30T22:54:36.177Z,10.31
2019-04-30T22:57:03.275Z,10.37
2019-04-30T22:59:50.279Z,10.34
2019-04-30T23:02:36.787Z,10.38
2019-04-30T23:05:07.237Z,10.39
2019-04-30T23:07:34.666Z,10.41
2019-04-30T23:10:01.771Z,10.43
2019-04-30T23:12:28.962Z,10.43
2019-04-30T23:14:56.041Z,10.44
2019-04-30T23:17:23.282Z,10.48
2019-04-30T23:19:50.414Z,10.51
2019-04-30T23:22:17.722Z,10.51
2019-04-30T23:24:44.886Z,10.49
2019-04-30T23:27:11.984Z,10.54
2019-04-30T23:29:39.641Z,10.49
2019-04-30T23:32:06.786Z,10.53
2019-04-30T23:34:33.882Z,10.56
2019-04-30T23:37:01.454Z,10.60
2019-04-30T23:39:28.522Z,10.60
2019-04-30T23:41:55.594Z,10.69
2019-04-30T23:44:23.103Z,10.69
2019-04-30T23:46:50.196Z,10.63
2019-04-30T23:49:17.275Z,10.61
2019-04-30T23:51:44.405Z,10.70
2019-04-30T23:54:11.476Z,10.64
2019-04-30T23:56:38.991Z,10.72
2019-04-30T23:59:06.474Z,10.68
